createdAt,value
2019-03-02T00:00:56.762Z,1013.11
2019-03-02T00:01:54.902Z,1013.10
2019-03-02T00:02:56.810Z,1013.11
2019-03-02T00:03:54.843Z,1013.10
2019-03-02T00:04:54.798Z,1013.11
2019-03-02T00:05:57.019Z,1013.09
2019-03-02T00:06:54.731Z,1013.14
2019-03-02T00:07:54.721Z,1013.14
2019-03-02T00:08:56.765Z,1013.13
2019-03-02T00:09:54.627Z,1013.17
2019-03-02T00:10:55.220Z,1013.19
2019-03-02T00:11:56.523Z,1013.18
2019-03-02T00:12:54.742Z,1013.22
2019-03-02T00:13:55.211Z,1013.18
2019-03-02T00:14:55.066Z,1013.21
2019-03-02T00:15:55.218Z,1013.17
2019-03-02T00:16:54.388Z,1013.20
2019-03-02T00:17:55.152Z,1013.20
2019-03-02T00:18:54.327Z,1013.18
2019-03-02T00:19:54.298Z,1013.17
2019-03-02T00:20:55.619Z,1013.15
2019-03-02T00:21:54.218Z,1013.18
2019-03-02T00:22:54.185Z,1013.12
2019-03-02T00:23:55.253Z,1013.19
2019-03-02T00:24:57.760Z,1013.19
2019-03-02T00:25:54.849Z,1013.21
2019-03-02T00:26:54.052Z,1013.16
2019-03-02T00:27:57.772Z,1013.17
2019-03-02T00:28:54.004Z,1013.14
2019-03-02T00:29:53.941Z,1013.21
2019-03-02T00:30:54.828Z,1013.15
2019-03-02T00:31:53.874Z,1013.11
2019-03-02T00:32:53.840Z,1013.14
2019-03-02T00:33:56.720Z,1013.15
2019-03-02T00:34:53.772Z,1013.15
2019-03-02T00:35:53.738Z,1013.09
2019-03-02T00:36:55.214Z,1013.11
2019-03-02T00:37:53.677Z,1013.07
2019-03-02T00:38:53.745Z,1013.06
2019-03-02T00:39:54.594Z,1013.10
2019-03-02T00:40:53.567Z,1013.08
2019-03-02T00:41:53.534Z,1013.07
2019-03-02T00:42:53.500Z,1013.07
2019-03-02T00:43:53.644Z,1013.09
2019-03-02T00:44:54.215Z,1013.06
2019-03-02T00:45:53.479Z,1013.05
2019-03-02T00:46:56.389Z,1013.06
2019-03-02T00:47:53.329Z,1013.00
2019-03-02T00:48:53.323Z,1013.04
2019-03-02T00:49:53.257Z,1013.07
2019-03-02T00:50:53.222Z,1013.09
2019-03-02T00:51:53.190Z,1013.06
2019-03-02T00:52:55.623Z,1013.08
2019-03-02T00:53:53.148Z,1013.05
2019-03-02T00:54:58.105Z,1013.04
2019-03-02T00:55:53.718Z,1013.06
2019-03-02T00:56:53.018Z,1013.04
2019-03-02T00:57:54.489Z,1013.02
2019-03-02T00:58:52.975Z,1013.01
2019-03-02T00:59:52.923Z,1013.00
2019-03-02T01:00:53.674Z,1013.03
2019-03-02T01:01:52.850Z,1012.99
2019-03-02T01:02:53.715Z,1013.00
2019-03-02T01:03:52.822Z,1013.02
2019-03-02T01:04:52.747Z,1012.95
2019-03-02T01:05:53.225Z,1012.99
2019-03-02T01:06:52.690Z,1012.95
2019-03-02T01:07:55.894Z,1012.95
2019-03-02T01:08:52.635Z,1012.98
2019-03-02T01:09:53.251Z,1012.94
2019-03-02T01:10:54.742Z,1012.94
2019-03-02T01:11:53.216Z,1012.94
2019-03-02T01:12:53.226Z,1012.93
2019-03-02T01:13:53.689Z,1012.95
2019-03-02T01:14:52.406Z,1012.91
2019-03-02T01:15:53.221Z,1012.89
2019-03-02T01:16:55.163Z,1012.86
2019-03-02T01:17:52.302Z,1012.87
2019-03-02T01:18:52.292Z,1012.87
2019-03-02T01:19:52.607Z,1012.91
2019-03-02T01:20:52.716Z,1012.90
2019-03-02T01:21:52.174Z,1012.87
2019-03-02T01:22:52.778Z,1012.89
2019-03-02T01:23:52.122Z,1012.88
2019-03-02T01:24:52.065Z,1012.90
2019-03-02T01:25:52.034Z,1012.88
2019-03-02T01:26:51.993Z,1012.90
2019-03-02T01:27:51.984Z,1012.89
2019-03-02T01:28:51.926Z,1012.93
2019-03-02T01:29:54.635Z,1012.92
2019-03-02T01:30:51.861Z,1012.90
2019-03-02T01:31:51.830Z,1012.91
2019-03-02T01:32:52.633Z,1012.89
2019-03-02T01:33:52.717Z,1012.84
2019-03-02T01:34:51.756Z,1012.82
2019-03-02T01:35:53.972Z,1012.84
2019-03-02T01:36:51.659Z,1012.85
2019-03-02T01:37:51.621Z,1012.84
2019-03-02T01:38:54.021Z,1012.86
2019-03-02T01:39:51.580Z,1012.84
2019-03-02T01:40:51.519Z,1012.84
2019-03-02T01:41:53.934Z,1012.83
2019-03-02T01:42:51.457Z,1012.83
2019-03-02T01:43:51.426Z,1012.79
2019-03-02T01:44:51.674Z,1012.79
2019-03-02T01:45:51.350Z,1012.77
2019-03-02T01:46:51.315Z,1012.73
2019-03-02T01:47:52.100Z,1012.73
2019-03-02T01:48:52.232Z,1012.74
2019-03-02T01:49:51.239Z,1012.73
2019-03-02T01:50:51.183Z,1012.72
2019-03-02T01:51:51.162Z,1012.70
2019-03-02T01:52:51.118Z,1012.68
2019-03-02T01:53:51.726Z,1012.67
2019-03-02T01:54:52.567Z,1012.67
2019-03-02T01:55:51.722Z,1012.67
2019-03-02T01:56:50.979Z,1012.63
2019-03-02T01:57:52.307Z,1012.64
2019-03-02T01:58:51.722Z,1012.61
2019-03-02T01:59:51.256Z,1012.59
2019-03-02T02:00:51.721Z,1012.61
2019-03-02T02:01:50.805Z,1012.58
2019-03-02T02:02:50.785Z,1012.57
2019-03-02T02:03:50.741Z,1012.55
2019-03-02T02:04:50.769Z,1012.53
2019-03-02T02:05:50.690Z,1012.57
2019-03-02T02:06:50.647Z,1012.54
2019-03-02T02:07:53.881Z,1012.54
2019-03-02T02:08:50.645Z,1012.50
2019-03-02T02:09:50.766Z,1012.49
2019-03-02T02:10:50.569Z,1012.50
2019-03-02T02:11:53.334Z,1012.48
2019-03-02T02:12:51.235Z,1012.49
2019-03-02T02:13:51.230Z,1012.48
2019-03-02T02:14:50.919Z,1012.47
2019-03-02T02:15:50.331Z,1012.46
2019-03-02T02:16:50.300Z,1012.43
2019-03-02T02:17:52.931Z,1012.43
2019-03-02T02:18:50.230Z,1012.41
2019-03-02T02:19:50.232Z,1012.43
2019-03-02T02:20:50.638Z,1012.42
2019-03-02T02:21:50.130Z,1012.40
2019-03-02T02:22:57.134Z,1012.38
2019-03-02T02:23:59.275Z,1012.38
2019-03-02T02:25:00.519Z,1012.40
2019-03-02T02:25:58.825Z,1012.34
2019-03-02T02:26:59.384Z,1012.35
2019-03-02T02:27:59.411Z,1012.31
2019-03-02T02:28:49.908Z,1012.34
2019-03-02T02:29:49.861Z,1012.34
2019-03-02T02:30:49.950Z,1012.35
2019-03-02T02:31:49.788Z,1012.31
2019-03-02T02:32:49.754Z,1012.30
2019-03-02T02:33:50.419Z,1012.29
2019-03-02T02:34:50.421Z,1012.32
2019-03-02T02:35:49.949Z,1012.28
2019-03-02T02:36:53.166Z,1012.27
2019-03-02T02:37:49.593Z,1012.30
2019-03-02T02:38:53.999Z,1012.31
2019-03-02T02:39:51.418Z,1012.30
2019-03-02T02:40:49.512Z,1012.28
2019-03-02T02:41:49.445Z,1012.27
2019-03-02T02:42:49.415Z,1012.29
2019-03-02T02:43:49.556Z,1012.28
2019-03-02T02:44:49.348Z,1012.32
2019-03-02T02:45:53.716Z,1012.32
2019-03-02T02:46:49.281Z,1012.29
2019-03-02T02:47:52.377Z,1012.30
2019-03-02T02:48:49.927Z,1012.26
2019-03-02T02:49:51.083Z,1012.24
2019-03-02T02:50:49.957Z,1012.28
2019-03-02T02:51:50.291Z,1012.30
2019-03-02T02:52:49.971Z,1012.28
2019-03-02T02:53:49.032Z,1012.25
2019-03-02T02:54:49.011Z,1012.28
2019-03-02T02:55:48.996Z,1012.30
2019-03-02T02:56:48.967Z,1012.28
2019-03-02T02:57:51.439Z,1012.29
2019-03-02T02:58:55.338Z,1012.29
2019-03-02T02:59:48.844Z,1012.31
2019-03-02T03:00:50.415Z,1012.29
2019-03-02T03:01:48.759Z,1012.30
2019-03-02T03:02:48.728Z,1012.31
2019-03-02T03:03:48.701Z,1012.31
2019-03-02T03:04:48.666Z,1012.35
2019-03-02T03:05:49.385Z,1012.31
2019-03-02T03:06:48.592Z,1012.32
2019-03-02T03:07:53.136Z,1012.32
2019-03-02T03:08:49.435Z,1012.29
2019-03-02T03:09:50.726Z,1012.28
2019-03-02T03:10:48.482Z,1012.23
2019-03-02T03:11:48.424Z,1012.24
2019-03-02T03:12:48.929Z,1012.25
2019-03-02T03:13:48.363Z,1012.27
2019-03-02T03:14:48.325Z,1012.27
2019-03-02T03:15:48.330Z,1012.25
2019-03-02T03:16:49.444Z,1012.24
2019-03-02T03:17:48.239Z,1012.24
2019-03-02T03:18:52.484Z,1012.22
2019-03-02T03:19:48.238Z,1012.26
2019-03-02T03:20:50.780Z,1012.24
2019-03-02T03:21:48.106Z,1012.27
2019-03-02T03:22:48.047Z,1012.25
2019-03-02T03:24:48.923Z,1012.26
2019-03-02T03:25:56.153Z,1012.30
2019-03-02T03:26:47.938Z,1012.28
2019-03-02T03:27:51.924Z,1012.27
2019-03-02T03:28:48.425Z,1012.31
2019-03-02T03:29:49.443Z,1012.28
2019-03-02T03:30:47.789Z,1012.25
2019-03-02T03:31:47.767Z,1012.21
2019-03-02T03:32:55.514Z,1012.26
2019-03-02T03:33:47.785Z,1012.26
2019-03-02T03:34:47.666Z,1012.23
2019-03-02T03:35:51.682Z,1012.23
2019-03-02T03:36:47.593Z,1012.20
2019-03-02T03:37:51.274Z,1012.24
2019-03-02T03:38:47.507Z,1012.20
2019-03-02T03:39:48.430Z,1012.21
2019-03-02T03:40:48.423Z,1012.20
2019-03-02T03:41:47.429Z,1012.19
2019-03-02T03:42:47.367Z,1012.15
2019-03-02T03:43:47.987Z,1012.18
2019-03-02T03:44:47.925Z,1012.18
2019-03-02T03:45:47.270Z,1012.18
2019-03-02T03:46:47.259Z,1012.20
2019-03-02T03:47:47.934Z,1012.19
2019-03-02T03:48:51.318Z,1012.19
2019-03-02T03:49:47.980Z,1012.20
2019-03-02T03:50:51.888Z,1012.21
2019-03-02T03:51:47.090Z,1012.23
2019-03-02T03:52:48.928Z,1012.20
2019-03-02T03:53:47.929Z,1012.23
2019-03-02T03:54:46.965Z,1012.19
2019-03-02T03:55:46.928Z,1012.23
2019-03-02T03:56:46.920Z,1012.21
2019-03-02T03:57:47.436Z,1012.18
2019-03-02T03:58:47.439Z,1012.15
2019-03-02T03:59:46.910Z,1012.20
2019-03-02T04:00:47.425Z,1012.19
2019-03-02T04:01:46.750Z,1012.20
2019-03-02T04:02:46.700Z,1012.13
2019-03-02T04:03:47.228Z,1012.16
2019-03-02T04:04:46.625Z,1012.18
2019-03-02T04:05:48.738Z,1012.19
2019-03-02T04:06:46.583Z,1012.21
2019-03-02T04:07:49.665Z,1012.17
2019-03-02T04:08:46.568Z,1012.19
2019-03-02T04:09:53.832Z,1012.24
2019-03-02T04:10:46.462Z,1012.26
2019-03-02T04:11:46.489Z,1012.24
2019-03-02T04:12:46.398Z,1012.21
2019-03-02T04:13:46.946Z,1012.24
2019-03-02T04:14:46.322Z,1012.21
2019-03-02T04:15:46.255Z,1012.21
2019-03-02T04:16:46.324Z,1012.22
2019-03-02T04:17:46.217Z,1012.23
2019-03-02T04:18:50.350Z,1012.25
2019-03-02T04:19:46.159Z,1012.24
2019-03-02T04:20:49.680Z,1012.18
2019-03-02T04:21:46.084Z,1012.22
2019-03-02T04:22:46.939Z,1012.23
2019-03-02T04:23:46.021Z,1012.22
2019-03-02T04:24:45.949Z,1012.22
2019-03-02T04:25:45.914Z,1012.26
2019-03-02T04:26:45.942Z,1012.26
2019-03-02T04:27:53.271Z,1012.23
2019-03-02T04:28:45.815Z,1012.24
2019-03-02T04:29:50.213Z,1012.26
2019-03-02T04:30:46.471Z,1012.24
2019-03-02T04:31:48.515Z,1012.28
2019-03-02T04:32:45.705Z,1012.24
2019-03-02T04:33:45.649Z,1012.21
2019-03-02T04:34:46.466Z,1012.23
2019-03-02T04:35:45.580Z,1012.21
2019-03-02T04:36:47.295Z,1012.22
2019-03-02T04:37:45.967Z,1012.20
2019-03-02T04:38:45.472Z,1012.16
2019-03-02T04:39:46.504Z,1012.19
2019-03-02T04:40:45.422Z,1012.18
2019-03-02T04:41:45.378Z,1012.15
2019-03-02T04:42:46.545Z,1012.14
2019-03-02T04:43:45.307Z,1012.19
2019-03-02T04:44:45.279Z,1012.16
2019-03-02T04:45:45.939Z,1012.18
2019-03-02T04:46:47.656Z,1012.16
2019-03-02T04:47:45.475Z,1012.17
2019-03-02T04:48:45.136Z,1012.20
2019-03-02T04:49:47.600Z,1012.19
2019-03-02T04:50:45.087Z,1012.19
2019-03-02T04:51:45.041Z,1012.16
2019-03-02T04:52:46.686Z,1012.16
2019-03-02T04:53:44.976Z,1012.15
2019-03-02T04:54:44.935Z,1012.15
2019-03-02T04:55:45.648Z,1012.17
2019-03-02T04:56:44.869Z,1012.14
2019-03-02T04:57:44.972Z,1012.19
2019-03-02T04:58:46.911Z,1012.19
2019-03-02T04:59:44.778Z,1012.19
2019-03-02T05:00:45.436Z,1012.18
2019-03-02T05:01:46.259Z,1012.19
2019-03-02T05:02:44.695Z,1012.20
2019-03-02T05:03:44.635Z,1012.16
2019-03-02T05:04:44.602Z,1012.18
2019-03-02T05:05:44.567Z,1012.16
2019-03-02T05:06:44.533Z,1012.17
2019-03-02T05:07:44.969Z,1012.17
2019-03-02T05:08:45.437Z,1012.14
2019-03-02T05:09:44.431Z,1012.13
2019-03-02T05:10:44.938Z,1012.09
2019-03-02T05:11:44.365Z,1012.15
2019-03-02T05:12:44.401Z,1012.12
2019-03-02T05:13:44.450Z,1012.09
2019-03-02T05:14:44.946Z,1012.13
2019-03-02T05:15:44.230Z,1012.11
2019-03-02T05:16:44.200Z,1012.11
2019-03-02T05:17:44.269Z,1012.11
2019-03-02T05:18:44.940Z,1012.06
2019-03-02T05:19:44.100Z,1012.08
2019-03-02T05:20:44.073Z,1012.09
2019-03-02T05:21:44.413Z,1012.12
2019-03-02T05:22:44.037Z,1012.13
2019-03-02T05:23:43.977Z,1012.14
2019-03-02T05:24:44.430Z,1012.19
2019-03-02T05:25:43.908Z,1012.20
2019-03-02T05:26:43.951Z,1012.19
2019-03-02T05:27:44.000Z,1012.18
2019-03-02T05:28:44.484Z,1012.18
2019-03-02T05:29:44.552Z,1012.16
2019-03-02T05:30:43.724Z,1012.16
2019-03-02T05:31:43.697Z,1012.20
2019-03-02T05:32:43.692Z,1012.18
2019-03-02T05:33:44.449Z,1012.18
2019-03-02T05:34:43.591Z,1012.18
2019-03-02T05:35:47.787Z,1012.21
2019-03-02T05:36:43.526Z,1012.20
2019-03-02T05:37:43.988Z,1012.23
2019-03-02T05:38:44.543Z,1012.24
2019-03-02T05:39:44.908Z,1012.22
2019-03-02T05:40:44.514Z,1012.23
2019-03-02T05:41:44.842Z,1012.24
2019-03-02T05:42:48.577Z,1012.19
2019-03-02T05:43:45.028Z,1012.24
2019-03-02T05:44:43.260Z,1012.24
2019-03-02T05:45:43.229Z,1012.26
2019-03-02T05:46:43.843Z,1012.29
2019-03-02T05:47:43.164Z,1012.23
2019-03-02T05:48:44.351Z,1012.27
2019-03-02T05:49:43.098Z,1012.24
2019-03-02T05:50:43.950Z,1012.29
2019-03-02T05:51:44.047Z,1012.27
2019-03-02T05:52:43.844Z,1012.30
2019-03-02T05:53:42.976Z,1012.29
2019-03-02T05:54:42.917Z,1012.28
2019-03-02T05:55:42.880Z,1012.29
2019-03-02T05:56:42.852Z,1012.28
2019-03-02T05:57:43.441Z,1012.26
2019-03-02T05:58:42.835Z,1012.28
2019-03-02T05:59:43.448Z,1012.23
2019-03-02T06:00:43.446Z,1012.27
2019-03-02T06:01:43.439Z,1012.24
2019-03-02T06:02:42.973Z,1012.24
2019-03-02T06:03:45.753Z,1012.26
2019-03-02T06:04:42.581Z,1012.20
2019-03-02T06:05:42.545Z,1012.25
2019-03-02T06:06:42.512Z,1012.20
2019-03-02T06:07:42.485Z,1012.21
2019-03-02T06:08:42.495Z,1012.23
2019-03-02T06:09:42.945Z,1012.24
2019-03-02T06:10:42.389Z,1012.23
2019-03-02T06:11:42.347Z,1012.24
2019-03-02T06:12:42.316Z,1012.25
2019-03-02T06:13:42.308Z,1012.26
2019-03-02T06:14:42.246Z,1012.29
2019-03-02T06:15:43.304Z,1012.26
2019-03-02T06:16:42.184Z,1012.33
2019-03-02T06:17:42.143Z,1012.32
2019-03-02T06:18:42.572Z,1012.31
2019-03-02T06:19:42.129Z,1012.34
2019-03-02T06:20:42.055Z,1012.38
2019-03-02T06:21:45.962Z,1012.36
2019-03-02T06:22:42.049Z,1012.34
2019-03-02T06:23:41.976Z,1012.32
2019-03-02T06:24:42.036Z,1012.35
2019-03-02T06:25:41.889Z,1012.34
2019-03-02T06:26:41.842Z,1012.37
2019-03-02T06:27:43.160Z,1012.38
2019-03-02T06:28:41.803Z,1012.38
2019-03-02T06:29:41.745Z,1012.37
2019-03-02T06:30:44.046Z,1012.38
2019-03-02T06:31:42.450Z,1012.40
2019-03-02T06:32:42.447Z,1012.43
2019-03-02T06:33:44.111Z,1012.39
2019-03-02T06:34:42.447Z,1012.39
2019-03-02T06:35:41.545Z,1012.39
2019-03-02T06:36:44.691Z,1012.40
2019-03-02T06:37:41.474Z,1012.42
2019-03-02T06:38:41.467Z,1012.46
2019-03-02T06:39:44.422Z,1012.44
2019-03-02T06:40:42.350Z,1012.45
2019-03-02T06:41:41.951Z,1012.47
2019-03-02T06:42:45.581Z,1012.50
2019-03-02T06:43:41.480Z,1012.48
2019-03-02T06:44:41.460Z,1012.53
2019-03-02T06:45:43.563Z,1012.49
2019-03-02T06:46:41.173Z,1012.50
2019-03-02T06:47:41.145Z,1012.53
2019-03-02T06:48:41.635Z,1012.52
2019-03-02T06:49:41.098Z,1012.53
2019-03-02T06:50:41.133Z,1012.54
2019-03-02T06:51:43.775Z,1012.54
2019-03-02T06:52:41.954Z,1012.55
2019-03-02T06:53:40.940Z,1012.58
2019-03-02T06:54:40.931Z,1012.57
2019-03-02T06:55:40.879Z,1012.59
2019-03-02T06:56:40.841Z,1012.54
2019-03-02T06:57:40.802Z,1012.56
2019-03-02T06:58:40.830Z,1012.55
2019-03-02T06:59:40.771Z,1012.54
2019-03-02T07:00:41.567Z,1012.55
2019-03-02T07:01:40.668Z,1012.58
2019-03-02T07:02:40.646Z,1012.59
2019-03-02T07:03:42.929Z,1012.60
2019-03-02T07:04:40.991Z,1012.56
2019-03-02T07:05:40.539Z,1012.56
2019-03-02T07:06:43.402Z,1012.58
2019-03-02T07:07:40.484Z,1012.56
2019-03-02T07:08:40.955Z,1012.56
2019-03-02T07:09:41.733Z,1012.58
2019-03-02T07:10:40.369Z,1012.52
2019-03-02T07:11:40.949Z,1012.56
2019-03-02T07:12:41.809Z,1012.55
2019-03-02T07:13:40.278Z,1012.56
2019-03-02T07:14:40.277Z,1012.65
2019-03-02T07:15:43.792Z,1012.60
2019-03-02T07:16:40.171Z,1012.57
2019-03-02T07:17:40.137Z,1012.63
2019-03-02T07:18:42.421Z,1012.63
2019-03-02T07:19:40.105Z,1012.62
2019-03-02T07:20:40.042Z,1012.58
2019-03-02T07:21:41.462Z,1012.59
2019-03-02T07:22:39.974Z,1012.62
2019-03-02T07:23:39.944Z,1012.58
2019-03-02T07:24:39.929Z,1012.58
2019-03-02T07:25:40.739Z,1012.63
2019-03-02T07:26:39.840Z,1012.62
2019-03-02T07:27:40.455Z,1012.61
2019-03-02T07:28:42.218Z,1012.62
2019-03-02T07:29:39.772Z,1012.62
2019-03-02T07:30:42.450Z,1012.61
2019-03-02T07:31:39.694Z,1012.63
2019-03-02T07:32:40.448Z,1012.62
2019-03-02T07:33:40.453Z,1012.61
2019-03-02T07:34:40.681Z,1012.58
2019-03-02T07:35:39.573Z,1012.60
2019-03-02T07:36:40.458Z,1012.59
2019-03-02T07:37:40.678Z,1012.60
2019-03-02T07:38:39.455Z,1012.55
2019-03-02T07:39:39.415Z,1012.58
2019-03-02T07:40:41.217Z,1012.59
2019-03-02T07:41:39.343Z,1012.55
2019-03-02T07:42:39.320Z,1012.55
2019-03-02T07:43:42.275Z,1012.54
2019-03-02T07:44:39.248Z,1012.55
2019-03-02T07:45:39.240Z,1012.56
2019-03-02T07:46:39.959Z,1012.53
2019-03-02T07:47:39.152Z,1012.50
2019-03-02T07:48:39.118Z,1012.55
2019-03-02T07:49:39.115Z,1012.52
2019-03-02T07:50:39.078Z,1012.52
2019-03-02T07:51:41.448Z,1012.51
2019-03-02T07:52:39.006Z,1012.52
2019-03-02T07:53:39.454Z,1012.56
2019-03-02T07:54:42.556Z,1012.56
2019-03-02T07:55:38.918Z,1012.57
2019-03-02T07:56:38.866Z,1012.59
2019-03-02T07:57:40.678Z,1012.62
2019-03-02T07:58:38.792Z,1012.64
2019-03-02T07:59:38.766Z,1012.58
2019-03-02T08:00:40.904Z,1012.56
2019-03-02T08:01:38.693Z,1012.58
2019-03-02T08:02:38.669Z,1012.60
2019-03-02T08:03:38.630Z,1012.57
2019-03-02T08:04:39.805Z,1012.54
2019-03-02T08:05:38.992Z,1012.60
2019-03-02T08:06:39.454Z,1012.57
2019-03-02T08:07:39.468Z,1012.61
2019-03-02T08:08:39.472Z,1012.61
2019-03-02T08:09:38.962Z,1012.64
2019-03-02T08:10:39.640Z,1012.67
2019-03-02T08:11:38.373Z,1012.68
2019-03-02T08:12:38.341Z,1012.65
2019-03-02T08:13:38.307Z,1012.66
2019-03-02T08:14:38.274Z,1012.61
2019-03-02T08:15:38.499Z,1012.59
2019-03-02T08:16:38.798Z,1012.58
2019-03-02T08:17:38.249Z,1012.58
2019-03-02T08:18:38.144Z,1012.60
2019-03-02T08:19:38.114Z,1012.59
2019-03-02T08:20:38.103Z,1012.52
2019-03-02T08:21:38.047Z,1012.50
2019-03-02T08:22:38.013Z,1012.52
2019-03-02T08:23:38.967Z,1012.51
2019-03-02T08:24:40.161Z,1012.50
2019-03-02T08:25:38.002Z,1012.48
2019-03-02T08:26:37.886Z,1012.48
2019-03-02T08:27:37.866Z,1012.46
2019-03-02T08:28:38.458Z,1012.48
2019-03-02T08:29:38.576Z,1012.46
2019-03-02T08:30:37.995Z,1012.40
2019-03-02T08:31:37.722Z,1012.40
2019-03-02T08:32:38.484Z,1012.42
2019-03-02T08:33:45.630Z,1012.38
2019-03-02T08:34:37.626Z,1012.41
2019-03-02T08:35:37.994Z,1012.43
2019-03-02T08:36:37.564Z,1012.45
2019-03-02T08:37:38.464Z,1012.45
2019-03-02T08:38:38.470Z,1012.47
2019-03-02T08:39:37.492Z,1012.46
2019-03-02T08:40:38.081Z,1012.48
2019-03-02T08:41:37.887Z,1012.46
2019-03-02T08:42:37.960Z,1012.48
2019-03-02T08:43:37.971Z,1012.47
2019-03-02T08:44:37.302Z,1012.46
2019-03-02T08:45:37.959Z,1012.45
2019-03-02T08:46:37.500Z,1012.41
2019-03-02T08:47:37.965Z,1012.44
2019-03-02T08:48:37.963Z,1012.45
2019-03-02T08:49:38.497Z,1012.49
2019-03-02T08:50:37.964Z,1012.42
2019-03-02T08:51:37.499Z,1012.37
2019-03-02T08:52:37.078Z,1012.34
2019-03-02T08:53:37.962Z,1012.43
2019-03-02T08:54:36.979Z,1012.37
2019-03-02T08:55:36.943Z,1012.39
2019-03-02T08:56:36.998Z,1012.39
2019-03-02T08:57:36.879Z,1012.45
2019-03-02T08:58:37.466Z,1012.45
2019-03-02T08:59:38.086Z,1012.47
2019-03-02T09:00:38.943Z,1012.45
2019-03-02T09:01:37.190Z,1012.45
2019-03-02T09:02:36.720Z,1012.45
2019-03-02T09:03:37.216Z,1012.45
2019-03-02T09:04:37.463Z,1012.46
2019-03-02T09:05:43.798Z,1012.46
2019-03-02T09:06:37.501Z,1012.44
2019-03-02T09:07:36.593Z,1012.50
2019-03-02T09:08:36.758Z,1012.49
2019-03-02T09:09:36.488Z,1012.51
2019-03-02T09:10:37.137Z,1012.48
2019-03-02T09:11:36.504Z,1012.50
2019-03-02T09:12:36.964Z,1012.49
2019-03-02T09:13:36.967Z,1012.52
2019-03-02T09:14:36.346Z,1012.52
2019-03-02T09:15:36.966Z,1012.48
2019-03-02T09:16:38.567Z,1012.49
2019-03-02T09:17:36.964Z,1012.46
2019-03-02T09:18:44.320Z,1012.48
2019-03-02T09:19:36.971Z,1012.50
2019-03-02T09:20:37.043Z,1012.51
2019-03-02T09:21:36.501Z,1012.49
2019-03-02T09:22:36.072Z,1012.48
2019-03-02T09:23:37.127Z,1012.44
2019-03-02T09:24:36.967Z,1012.48
2019-03-02T09:25:36.966Z,1012.48
2019-03-02T09:26:36.003Z,1012.50
2019-03-02T09:27:36.466Z,1012.47
2019-03-02T09:28:36.467Z,1012.52
2019-03-02T09:29:36.473Z,1012.49
2019-03-02T09:30:36.463Z,1012.51
2019-03-02T09:31:38.336Z,1012.50
2019-03-02T09:32:35.801Z,1012.49
2019-03-02T09:33:36.652Z,1012.43
2019-03-02T09:34:37.069Z,1012.44
2019-03-02T09:35:36.468Z,1012.46
2019-03-02T09:36:35.649Z,1012.49
2019-03-02T09:37:35.592Z,1012.49
2019-03-02T09:38:36.467Z,1012.47
2019-03-02T09:39:37.531Z,1012.50
2019-03-02T09:40:36.470Z,1012.47
2019-03-02T09:41:35.505Z,1012.54
2019-03-02T09:42:40.201Z,1012.52
2019-03-02T09:43:35.974Z,1012.53
2019-03-02T09:44:37.965Z,1012.55
2019-03-02T09:45:35.337Z,1012.47
2019-03-02T09:46:35.510Z,1012.53
2019-03-02T09:47:35.268Z,1012.50
2019-03-02T09:48:35.985Z,1012.52
2019-03-02T09:49:37.465Z,1012.51
2019-03-02T09:50:35.195Z,1012.58
2019-03-02T09:51:35.970Z,1012.56
2019-03-02T09:52:35.502Z,1012.56
2019-03-02T09:53:35.086Z,1012.56
2019-03-02T09:54:35.997Z,1012.53
2019-03-02T09:55:35.989Z,1012.53
2019-03-02T09:56:35.973Z,1012.51
2019-03-02T09:57:35.021Z,1012.53
2019-03-02T09:58:34.931Z,1012.56
2019-03-02T09:59:35.482Z,1012.55
2019-03-02T10:00:36.048Z,1012.54
2019-03-02T10:01:35.705Z,1012.54
2019-03-02T10:02:35.008Z,1012.58
2019-03-02T10:03:35.481Z,1012.56
2019-03-02T10:04:35.884Z,1012.58
2019-03-02T10:05:35.499Z,1012.58
2019-03-02T10:06:35.479Z,1012.59
2019-03-02T10:07:37.866Z,1012.59
2019-03-02T10:08:34.607Z,1012.56
2019-03-02T10:09:34.607Z,1012.55
2019-03-02T10:10:34.555Z,1012.56
2019-03-02T10:11:35.481Z,1012.58
2019-03-02T10:12:34.509Z,1012.57
2019-03-02T10:13:34.444Z,1012.52
2019-03-02T10:14:35.127Z,1012.57
2019-03-02T10:15:34.975Z,1012.52
2019-03-02T10:16:34.348Z,1012.58
2019-03-02T10:17:34.859Z,1012.51
2019-03-02T10:18:34.296Z,1012.51
2019-03-02T10:19:34.355Z,1012.54
2019-03-02T10:20:34.248Z,1012.56
2019-03-02T10:21:34.997Z,1012.55
2019-03-02T10:22:35.385Z,1012.57
2019-03-02T10:23:34.125Z,1012.58
2019-03-02T10:24:34.088Z,1012.60
2019-03-02T10:25:34.973Z,1012.57
2019-03-02T10:26:34.973Z,1012.59
2019-03-02T10:27:34.034Z,1012.56
2019-03-02T10:28:35.079Z,1012.55
2019-03-02T10:29:44.273Z,1012.57
2019-03-02T10:30:34.503Z,1012.59
2019-03-02T10:31:34.492Z,1012.54
2019-03-02T10:32:34.031Z,1012.58
2019-03-02T10:33:33.806Z,1012.58
2019-03-02T10:34:33.770Z,1012.57
2019-03-02T10:35:33.739Z,1012.61
2019-03-02T10:36:33.712Z,1012.61
2019-03-02T10:37:34.032Z,1012.61
2019-03-02T10:38:34.508Z,1012.61
2019-03-02T10:39:33.663Z,1012.61
2019-03-02T10:40:33.600Z,1012.61
2019-03-02T10:41:33.611Z,1012.65
2019-03-02T10:42:35.970Z,1012.64
2019-03-02T10:43:33.995Z,1012.66
2019-03-02T10:44:33.452Z,1012.65
2019-03-02T10:45:33.768Z,1012.66
2019-03-02T10:46:34.004Z,1012.62
2019-03-02T10:47:33.391Z,1012.59
2019-03-02T10:48:34.004Z,1012.64
2019-03-02T10:49:33.295Z,1012.63
2019-03-02T10:50:33.278Z,1012.61
2019-03-02T10:51:37.460Z,1012.61
2019-03-02T10:52:33.534Z,1012.61
2019-03-02T10:53:33.190Z,1012.60
2019-03-02T10:54:34.831Z,1012.58
2019-03-02T10:55:34.004Z,1012.58
2019-03-02T10:56:33.264Z,1012.56
2019-03-02T10:57:33.055Z,1012.54
2019-03-02T10:58:34.696Z,1012.52
2019-03-02T10:59:32.981Z,1012.56
2019-03-02T11:00:32.948Z,1012.55
2019-03-02T11:01:33.505Z,1012.56
2019-03-02T11:02:32.890Z,1012.52
2019-03-02T11:03:33.072Z,1012.57
2019-03-02T11:04:32.827Z,1012.56
2019-03-02T11:05:33.502Z,1012.60
2019-03-02T11:06:34.132Z,1012.56
2019-03-02T11:07:32.732Z,1012.54
2019-03-02T11:08:33.051Z,1012.61
2019-03-02T11:09:32.834Z,1012.57
2019-03-02T11:10:32.643Z,1012.56
2019-03-02T11:11:33.682Z,1012.56
2019-03-02T11:12:32.575Z,1012.49
2019-03-02T11:13:33.045Z,1012.55
2019-03-02T11:14:32.519Z,1012.51
2019-03-02T11:15:32.999Z,1012.52
2019-03-02T11:16:32.451Z,1012.55
2019-03-02T11:17:33.013Z,1012.54
2019-03-02T11:18:34.532Z,1012.53
2019-03-02T11:19:33.015Z,1012.53
2019-03-02T11:20:32.330Z,1012.53
2019-03-02T11:21:34.618Z,1012.56
2019-03-02T11:22:38.554Z,1012.57
2019-03-02T11:23:32.543Z,1012.57
2019-03-02T11:24:32.208Z,1012.55
2019-03-02T11:25:33.008Z,1012.58
2019-03-02T11:26:33.008Z,1012.57
2019-03-02T11:27:33.003Z,1012.57
2019-03-02T11:28:32.542Z,1012.56
2019-03-02T11:29:32.049Z,1012.59
2019-03-02T11:30:32.015Z,1012.58
2019-03-02T11:31:32.532Z,1012.50
2019-03-02T11:32:32.504Z,1012.54
2019-03-02T11:33:32.230Z,1012.57
2019-03-02T11:34:33.798Z,1012.55
2019-03-02T11:35:31.887Z,1012.59
2019-03-02T11:36:31.853Z,1012.55
2019-03-02T11:37:32.511Z,1012.55
2019-03-02T11:38:33.435Z,1012.52
2019-03-02T11:39:31.743Z,1012.52
2019-03-02T11:40:33.029Z,1012.52
2019-03-02T11:41:32.510Z,1012.48
2019-03-02T11:42:31.639Z,1012.45
2019-03-02T11:43:31.610Z,1012.41
2019-03-02T11:44:31.608Z,1012.41
2019-03-02T11:45:32.506Z,1012.43
2019-03-02T11:46:32.507Z,1012.44
2019-03-02T11:47:33.096Z,1012.41
2019-03-02T11:48:31.457Z,1012.43
2019-03-02T11:49:34.756Z,1012.41
2019-03-02T11:50:31.392Z,1012.40
2019-03-02T11:51:31.367Z,1012.42
2019-03-02T11:52:34.968Z,1012.41
2019-03-02T11:53:32.022Z,1012.38
2019-03-02T11:54:31.297Z,1012.42
2019-03-02T11:55:32.023Z,1012.41
2019-03-02T11:56:32.019Z,1012.36
2019-03-02T11:57:31.171Z,1012.40
2019-03-02T11:58:33.561Z,1012.36
2019-03-02T11:59:31.556Z,1012.32
2019-03-02T12:00:37.813Z,1012.25
2019-03-02T12:01:34.161Z,1012.30
2019-03-02T12:02:32.013Z,1012.27
2019-03-02T12:03:31.510Z,1012.25
2019-03-02T12:04:31.050Z,1012.26
2019-03-02T12:05:31.512Z,1012.23
2019-03-02T12:06:31.517Z,1012.22